< Typhoon 197802 1978 Season Typhoon 197804 >
Typhoon 197803 (POLLY)
General InformationTrack Information on Google MapsDetailed Wind Information || Disaster Info.ResourceGoogle EarthGE AnimationAtom FeedGeoJSON
Detalied Best Track (Time Zone = UTC)
Year Month Day Hour Lat. Long. Pressure (hPa) Wind (kt) Class Image Chart
1978 6 14 00 23.0 137.0 1004 0 2 -- Chart
1978 6 14 06 23.3 135.6 1004 0 2 -- Chart
1978 6 14 12 23.5 134.6 1004 0 2 -- Chart
1978 6 14 18 23.5 134.0 1002 0 2 -- Chart
1978 6 15 00 23.4 133.5 1002 0 2 -- Chart
1978 6 15 06 23.3 133.0 1002 0 2 -- Chart
1978 6 15 12 22.7 132.7 1000 0 2 -- Chart
1978 6 15 18 22.9 133.2 1000 0 2 -- Chart
1978 6 16 00 23.0 133.0 1000 0 2 -- Chart
1978 6 16 06 23.1 132.5 1000 0 2 -- Chart
1978 6 16 12 23.4 131.1 1000 0 2 -- Chart
1978 6 16 18 23.8 129.6 1000 0 2 -- Chart
1978 6 17 00 24.3 129.1 998 0 2 -- Chart
1978 6 17 06 24.6 128.4 996 0 2 -- Chart
1978 6 17 12 24.7 127.5 996 0 2 -- Chart
1978 6 17 18 25.4 126.8 996 0 2 -- Chart
1978 6 18 00 26.0 126.0 994 0 2 -- Chart
1978 6 18 06 25.4 126.0 992 35 3 -- Chart
1978 6 18 12 26.2 126.3 990 35 3 -- Chart
1978 6 18 18 26.9 126.1 985 40 3 -- Chart
1978 6 19 00 27.3 126.1 985 40 3 -- Chart
1978 6 19 06 28.2 126.1 985 40 3 -- Chart
1978 6 19 12 28.9 126.1 985 40 3 -- Chart
1978 6 19 18 30.2 126.7 985 45 3 -- Chart
1978 6 20 00 31.4 127.5 985 45 3 -- Chart
1978 6 20 06 32.4 128.6 990 40 3 -- Chart
1978 6 20 12 33.9 130.9 998 0 6 -- Chart
1978 6 20 18 37.0 136.0 998 0 6 -- Chart
1978 6 21 00 39.0 140.0 999 0 6 -- Chart
1978 6 21 06 42.2 145.0 998 0 6 -- Chart
1978 6 21 12 43.0 148.2 998 0 6 -- Chart
1978 6 21 18 43.5 151.9 998 0 6 -- Chart
1978 6 22 00 43.9 155.0 998 0 6 -- Chart
1978 6 22 06 44.0 158.7 998 0 6 -- Chart
1978 6 22 12 44.7 162.0 998 0 6 -- Chart
1978 6 22 18 45.0 165.6 998 0 6 -- Chart
1978 6 23 00 45.1 168.5 998 0 6 -- Chart
1978 6 23 06 45.1 170.9 998 0 6 -- Chart
1978 6 23 12 45.5 173.0 998 0 6 -- Chart
1978 6 23 18 47.0 176.0 996 0 6 -- Chart
1978 6 24 00 48.0 178.2 994 0 6 -- Chart
Japan Meteorological Agency Best Track Data | Correction Date : 1992-10-21
< Typhoon 197802 1978 Season Typhoon 197804 >

Help